Hauptseite
METAR-TAF:

METAR-TAF

Flughäfen :

Fliegerhorst Neuburg

Neuburg, Deutschland

Breite: 48-43N, Länge: 011-13E, Höhe: 380 m

Beobachtung

Neuester Wetterbericht von vor 57 Minuten, um 18:20 UTC
Wind 3 kt aus West/Nordwest
Temperatur 26°C
Luftfeuchtigkeit 45%
Luftdruck 1019 hPa
Sichtweite 10 km oder mehr
Leicht bewölkt in der Höhe von 7000 ft

METAR: ETSN 191820Z 29003KT 9999 FEW070 26/13 Q1019 BLU+

Zeit: 21:17 (19:17 UTC)

Prognose

Neuester Wetterbericht von vor 3 Stunden und 17 Minuten, um 16:00 UTC
Gültige Prognose vom 19 um 17 UTC bis 20 um 02 UTC
Wind 3 kt aus unterschiedlichen Richtungen
Sichtweite 10 km oder mehr
Leicht bewölkt in der Höhe von 30000 ft

TAF: ETSN 191600Z 1917/2002 VRB03KT 9999 NSW FEW300 BY ETGL

Wetterbeobachtungen und Prognosen von mehr als 4000 Flughäfen (METAR und TAF Bericht).

Die verfügbaren Stationen werden durch gelbe und rote Markierungen auf der Karte dargestellt.

Führen Sie die Maus auf sie, um den Namen der Station zu sehen.

Darauf klicken, um die Beobachtung von Wetterbeobachtungen und Prognosen zu sehen.

Um die Karte zu ändern : klicken Sie auf den grünen Tasten mit einem schwarzen Kreuz Zum Vergrößern, auf den grünen Button mit einem Gedankenstrich zu verkleinern, oder auf die grünen Pfeile für benachbarte Karten.


METAR-TAF: